createdAt,value
2019-05-15T00:01:58.425Z,72.00
2019-05-15T00:04:29.567Z,71.88
2019-05-15T00:07:00.667Z,71.79
2019-05-15T00:09:31.715Z,71.81
2019-05-15T00:12:02.876Z,71.92
2019-05-15T00:14:33.874Z,71.95
2019-05-15T00:17:04.879Z,71.77
2019-05-15T00:19:36.004Z,71.77
2019-05-15T00:22:08.630Z,71.85
2019-05-15T00:24:39.867Z,71.74
2019-05-15T00:27:10.961Z,72.00
2019-05-15T00:29:42.252Z,71.97
2019-05-15T00:32:13.448Z,71.88
2019-05-15T00:34:44.537Z,71.94
2019-05-15T00:37:18.072Z,71.80
2019-05-15T00:39:49.044Z,71.95
2019-05-15T00:42:20.121Z,71.75
2019-05-15T00:44:51.060Z,71.83
2019-05-15T00:47:22.122Z,71.75
2019-05-15T00:49:53.594Z,71.75
2019-05-15T00:52:24.577Z,71.73
2019-05-15T00:54:55.660Z,71.64
2019-05-15T00:57:28.355Z,71.93
2019-05-15T00:59:59.338Z,71.79
2019-05-15T01:02:30.421Z,72.10
2019-05-15T01:05:01.361Z,72.11
2019-05-15T01:07:32.465Z,72.20
2019-05-15T01:10:04.131Z,72.31
2019-05-15T01:12:35.349Z,72.37
2019-05-15T01:15:09.201Z,72.43
2019-05-15T01:17:40.723Z,72.42
2019-05-15T01:20:12.347Z,72.65
2019-05-15T01:22:43.393Z,72.53
2019-05-15T01:25:14.477Z,72.53
2019-05-15T01:27:45.729Z,72.56
2019-05-15T01:30:17.964Z,72.57
2019-05-15T01:32:49.439Z,72.80
2019-05-15T01:35:20.652Z,72.93
2019-05-15T01:37:51.923Z,72.95
2019-05-15T01:40:23.159Z,72.88
2019-05-15T01:42:54.015Z,73.08
2019-05-15T01:45:24.975Z,72.92
2019-05-15T01:47:58.495Z,73.03
2019-05-15T01:50:29.322Z,72.95
2019-05-15T01:53:00.335Z,72.90
2019-05-15T01:55:31.337Z,72.83
2019-05-15T01:58:02.489Z,72.71
2019-05-15T02:00:33.629Z,72.79
2019-05-15T02:03:04.764Z,72.70
2019-05-15T02:05:36.151Z,72.67
2019-05-15T02:08:08.228Z,72.67
2019-05-15T02:10:39.632Z,72.72
2019-05-15T02:13:10.739Z,72.62
2019-05-15T02:15:41.781Z,72.62
2019-05-15T02:18:12.823Z,72.70
2019-05-15T02:20:43.867Z,72.80
2019-05-15T02:23:14.937Z,72.90
2019-05-15T02:25:48.023Z,72.87
2019-05-15T02:28:18.852Z,72.92
2019-05-15T02:30:50.636Z,72.76
2019-05-15T02:33:21.743Z,72.65
2019-05-15T02:35:53.033Z,72.71
2019-05-15T02:38:29.224Z,72.77
2019-05-15T02:40:59.379Z,72.69
2019-05-15T02:43:30.733Z,72.69
2019-05-15T02:46:01.982Z,72.69
2019-05-15T02:48:32.965Z,72.55
2019-05-15T02:51:04.165Z,72.72
2019-05-15T02:53:35.457Z,72.73
2019-05-15T02:56:09.305Z,72.65
2019-05-15T02:58:40.035Z,72.65
2019-05-15T03:01:11.341Z,72.65
2019-05-15T03:03:42.535Z,72.51
2019-05-15T03:06:13.562Z,72.62
2019-05-15T03:08:44.836Z,72.62
2019-05-15T03:11:18.763Z,72.81
2019-05-15T03:13:50.495Z,72.83
2019-05-15T03:16:21.519Z,72.77
2019-05-15T03:18:55.749Z,72.67
2019-05-15T03:21:29.297Z,72.75
2019-05-15T03:23:59.643Z,72.54
2019-05-15T03:26:30.879Z,72.66
2019-05-15T03:29:02.009Z,72.54
2019-05-15T03:31:50.633Z,72.68
2019-05-15T03:34:18.562Z,72.64
2019-05-15T03:36:44.399Z,72.58
2019-05-15T03:39:11.646Z,72.57
2019-05-15T03:41:42.617Z,72.60
2019-05-15T03:44:13.965Z,72.47
2019-05-15T03:46:45.025Z,72.37
2019-05-15T03:49:16.107Z,72.26
2019-05-15T03:51:49.910Z,72.18
2019-05-15T03:54:19.805Z,72.18
2019-05-15T03:56:50.700Z,72.10
2019-05-15T03:59:21.853Z,71.94
2019-05-15T04:01:53.009Z,71.95
2019-05-15T04:04:24.314Z,72.22
2019-05-15T04:06:55.525Z,72.47
2019-05-15T04:09:29.472Z,72.33
2019-05-15T04:12:00.131Z,72.26
2019-05-15T04:14:32.856Z,72.22
2019-05-15T04:17:03.948Z,72.31
2019-05-15T04:19:38.884Z,72.41
2019-05-15T04:22:09.303Z,72.31
2019-05-15T04:24:41.384Z,72.42
2019-05-15T04:27:13.356Z,72.31
2019-05-15T04:29:44.383Z,72.18
2019-05-15T04:32:15.466Z,71.98
2019-05-15T04:34:48.951Z,71.80
2019-05-15T04:37:19.209Z,71.78
2019-05-15T04:39:50.080Z,72.01
2019-05-15T04:42:21.019Z,71.78
2019-05-15T04:44:52.010Z,71.65
2019-05-15T04:47:23.237Z,71.37
2019-05-15T04:49:54.175Z,71.23
2019-05-15T04:52:25.213Z,71.14
2019-05-15T04:54:56.024Z,71.04
2019-05-15T04:57:33.005Z,71.01
2019-05-15T05:00:00.285Z,71.08
2019-05-15T05:02:32.386Z,71.01
2019-05-15T05:05:04.714Z,71.02
2019-05-15T05:07:38.966Z,71.08
2019-05-15T05:10:10.317Z,71.15
2019-05-15T05:12:42.548Z,71.19
2019-05-15T05:15:13.989Z,71.40
2019-05-15T05:17:45.345Z,71.62
2019-05-15T05:20:17.917Z,71.58
2019-05-15T05:22:49.181Z,71.73
2019-05-15T05:25:20.170Z,71.71
2019-05-15T05:27:51.620Z,71.48
2019-05-15T05:30:22.819Z,71.40
2019-05-15T05:32:53.942Z,71.41
2019-05-15T05:35:25.009Z,71.34
2019-05-15T05:37:58.223Z,71.32
2019-05-15T05:40:29.370Z,71.18
2019-05-15T05:43:00.791Z,71.19
2019-05-15T05:45:31.915Z,71.22
2019-05-15T05:48:03.090Z,71.06
2019-05-15T05:50:44.815Z,71.03
2019-05-15T05:53:15.945Z,71.20
2019-05-15T05:55:49.174Z,71.22
2019-05-15T05:58:20.073Z,71.30
2019-05-15T06:00:52.124Z,71.29
2019-05-15T06:03:23.410Z,71.16
2019-05-15T06:05:54.437Z,71.13
2019-05-15T06:08:28.100Z,71.13
2019-05-15T06:10:58.710Z,71.05
2019-05-15T06:13:29.945Z,71.00
2019-05-15T06:16:01.067Z,70.86
2019-05-15T06:18:32.071Z,70.76
2019-05-15T06:21:03.147Z,70.73
2019-05-15T06:23:35.883Z,70.66
2019-05-15T06:26:09.604Z,70.51
2019-05-15T06:28:39.860Z,70.44
2019-05-15T06:31:10.900Z,70.29
2019-05-15T06:33:41.962Z,70.33
2019-05-15T06:36:13.210Z,70.25
2019-05-15T06:38:44.241Z,70.07
2019-05-15T06:41:17.932Z,69.83
2019-05-15T06:43:48.502Z,69.52
2019-05-15T06:46:19.786Z,69.32
2019-05-15T06:48:50.773Z,69.22
2019-05-15T06:51:21.771Z,69.15
2019-05-15T06:53:53.037Z,69.22
2019-05-15T06:56:24.205Z,69.38
2019-05-15T06:58:55.183Z,69.21
2019-05-15T07:01:26.357Z,69.04
2019-05-15T07:03:59.058Z,68.63
2019-05-15T07:06:30.537Z,68.40
2019-05-15T07:09:01.530Z,68.21
2019-05-15T07:11:32.903Z,67.80
2019-05-15T07:14:04.440Z,67.61
2019-05-15T07:16:35.361Z,67.27
2019-05-15T07:19:08.291Z,66.88
2019-05-15T07:21:39.313Z,66.72
2019-05-15T07:24:10.262Z,66.85
2019-05-15T07:26:41.374Z,67.26
2019-05-15T07:29:12.548Z,67.56
2019-05-15T07:31:43.891Z,67.58
2019-05-15T07:34:15.026Z,67.44
2019-05-15T07:36:49.221Z,67.18
2019-05-15T07:39:19.210Z,67.00
2019-05-15T07:41:50.132Z,66.87
2019-05-15T07:44:21.316Z,66.86
2019-05-15T07:46:52.224Z,66.92
2019-05-15T07:49:23.884Z,67.21
2019-05-15T07:51:54.972Z,67.22
2019-05-15T07:54:26.196Z,67.12
2019-05-15T07:56:58.214Z,67.12
2019-05-15T07:59:34.324Z,67.11
2019-05-15T08:02:05.440Z,67.30
2019-05-15T08:04:38.064Z,67.27
2019-05-15T08:07:09.497Z,67.04
2019-05-15T08:09:40.478Z,66.74
2019-05-15T08:12:12.141Z,66.76
2019-05-15T08:14:43.362Z,66.65
2019-05-15T08:17:18.224Z,66.50
2019-05-15T08:19:48.738Z,66.05
2019-05-15T08:22:19.844Z,65.77
2019-05-15T08:24:51.011Z,65.72
2019-05-15T08:27:23.742Z,65.48
2019-05-15T08:29:55.078Z,65.33
2019-05-15T08:32:28.004Z,65.13
2019-05-15T08:34:59.254Z,65.34
2019-05-15T08:37:31.001Z,65.78
2019-05-15T08:40:01.950Z,65.99
2019-05-15T08:42:34.442Z,66.25
2019-05-15T08:45:09.223Z,66.35
2019-05-15T08:47:40.412Z,66.59
2019-05-15T08:50:12.272Z,66.81
2019-05-15T08:52:44.422Z,66.98
2019-05-15T08:55:15.887Z,66.92
2019-05-15T08:57:54.050Z,66.97
2019-05-15T09:00:19.938Z,67.14
2019-05-15T09:02:51.159Z,67.08
2019-05-15T09:05:22.684Z,66.98
2019-05-15T09:07:53.940Z,66.97
2019-05-15T09:10:25.122Z,67.02
2019-05-15T09:12:58.611Z,66.97
2019-05-15T09:15:29.513Z,66.93
2019-05-15T09:18:14.725Z,67.04
2019-05-15T09:20:33.439Z,67.15
2019-05-15T09:23:04.661Z,67.05
2019-05-15T09:25:35.831Z,67.13
2019-05-15T09:28:08.688Z,67.10
2019-05-15T09:30:39.650Z,67.11
2019-05-15T09:33:11.204Z,67.23
2019-05-15T09:35:42.738Z,66.97
2019-05-15T09:38:13.958Z,66.79
2019-05-15T09:40:46.585Z,66.58
2019-05-15T09:43:18.316Z,66.45
2019-05-15T09:45:50.146Z,66.45
2019-05-15T09:48:21.214Z,66.60
2019-05-15T09:50:52.191Z,66.60
2019-05-15T09:53:24.972Z,66.52
2019-05-15T09:55:55.999Z,66.72
2019-05-15T09:58:30.047Z,66.51
2019-05-15T10:01:00.832Z,66.34
2019-05-15T10:03:32.272Z,66.40
2019-05-15T10:06:03.482Z,66.50
2019-05-15T10:08:34.596Z,66.94
2019-05-15T10:11:08.866Z,67.16
2019-05-15T10:13:38.911Z,67.09
2019-05-15T10:16:10.093Z,66.99
2019-05-15T10:18:41.359Z,66.97
2019-05-15T10:21:12.668Z,66.94
2019-05-15T10:23:43.901Z,66.59
2019-05-15T10:26:15.059Z,66.49
2019-05-15T10:28:49.025Z,66.50
2019-05-15T10:31:19.710Z,66.17
2019-05-15T10:33:52.463Z,65.67
2019-05-15T10:36:23.739Z,65.76
2019-05-15T10:38:54.915Z,65.74
2019-05-15T10:41:28.152Z,65.69
2019-05-15T10:44:00.298Z,65.77
2019-05-15T10:46:31.729Z,65.95
2019-05-15T10:49:02.763Z,65.72
2019-05-15T10:51:33.873Z,65.79
2019-05-15T10:54:05.194Z,65.83
2019-05-15T10:56:38.374Z,65.49
2019-05-15T10:59:09.313Z,65.29
2019-05-15T11:01:40.547Z,64.90
2019-05-15T11:04:11.843Z,64.61
2019-05-15T11:06:43.111Z,64.71
2019-05-15T11:09:14.084Z,64.60
2019-05-15T11:11:45.020Z,64.79
2019-05-15T11:14:18.273Z,64.92
2019-05-15T11:16:49.351Z,64.57
2019-05-15T11:19:20.389Z,64.63
2019-05-15T11:21:51.554Z,64.64
2019-05-15T11:24:22.853Z,64.66
2019-05-15T11:26:56.189Z,64.86
2019-05-15T11:29:27.039Z,64.91
2019-05-15T11:31:58.265Z,65.00
2019-05-15T11:34:29.427Z,65.08
2019-05-15T11:37:00.785Z,64.90
2019-05-15T11:39:32.119Z,64.71
2019-05-15T11:42:03.235Z,64.75
2019-05-15T11:44:34.263Z,64.72
2019-05-15T11:47:05.579Z,64.83
2019-05-15T11:49:38.396Z,65.01
2019-05-15T11:52:09.614Z,65.24
2019-05-15T11:54:40.722Z,65.60
2019-05-15T11:57:12.073Z,65.85
2019-05-15T11:59:45.597Z,66.05
2019-05-15T12:02:18.621Z,66.34
2019-05-15T12:04:50.349Z,66.71
2019-05-15T12:07:21.509Z,67.09
2019-05-15T12:09:53.740Z,67.08
2019-05-15T12:12:28.752Z,67.21
2019-05-15T12:14:57.744Z,67.09
2019-05-15T12:17:28.944Z,66.50
2019-05-15T12:20:05.791Z,66.00
2019-05-15T12:22:33.005Z,65.31
2019-05-15T12:25:05.178Z,64.73
2019-05-15T12:27:36.079Z,64.83
2019-05-15T12:30:15.318Z,64.74
2019-05-15T12:32:49.227Z,64.94
2019-05-15T12:35:20.375Z,64.89
2019-05-15T12:37:51.795Z,64.95
2019-05-15T13:00:45.423Z,65.53
2019-05-15T13:03:18.234Z,65.67
2019-05-15T13:05:49.563Z,65.72
2019-05-15T13:08:20.686Z,66.11
2019-05-15T13:10:51.742Z,66.15
2019-05-15T13:13:23.326Z,66.46
2019-05-15T13:15:54.520Z,66.68
2019-05-15T13:18:25.595Z,66.60
2019-05-15T13:20:59.516Z,66.71
2019-05-15T13:23:30.184Z,66.77
2019-05-15T13:26:01.324Z,66.85
2019-05-15T13:28:34.504Z,67.01
2019-05-15T13:31:05.569Z,67.04
2019-05-15T13:33:38.443Z,67.02
2019-05-15T13:36:09.567Z,67.26
2019-05-15T13:38:40.830Z,67.27
2019-05-15T13:41:12.046Z,67.49
2019-05-15T13:43:43.263Z,67.66
2019-05-15T13:46:14.684Z,67.70
2019-05-15T13:48:45.950Z,67.47
2019-05-15T13:51:18.261Z,67.56
2019-05-15T13:53:49.350Z,67.66
2019-05-15T13:56:21.964Z,67.83
2019-05-15T13:58:53.238Z,67.79
2019-05-15T14:01:24.628Z,67.80
2019-05-15T14:03:55.639Z,68.11
2019-05-15T14:06:28.686Z,68.14
2019-05-15T14:08:59.356Z,68.52
2019-05-15T14:11:31.565Z,68.47
2019-05-15T14:14:02.774Z,68.52
2019-05-15T14:16:33.911Z,68.47
2019-05-15T14:19:05.119Z,68.59
2019-05-15T14:21:37.961Z,68.59
2019-05-15T14:24:09.421Z,68.71
2019-05-15T14:26:40.458Z,68.59
2019-05-15T14:29:11.917Z,68.63
2019-05-15T14:31:42.982Z,68.69
2019-05-15T14:34:14.264Z,69.00
2019-05-15T14:36:45.303Z,69.23
2019-05-15T14:39:16.391Z,69.42
2019-05-15T14:41:49.182Z,69.44
2019-05-15T14:44:21.735Z,69.39
2019-05-15T14:46:53.018Z,69.30
2019-05-15T14:49:24.214Z,69.47
2019-05-15T14:52:07.678Z,69.67
2019-05-15T14:54:29.016Z,69.59
2019-05-15T14:57:00.239Z,69.83
2019-05-15T14:59:31.134Z,69.68
2019-05-15T15:02:02.714Z,69.64
2019-05-15T15:04:33.613Z,69.71
2019-05-15T15:07:04.867Z,69.77
2019-05-15T15:09:36.022Z,69.75
2019-05-15T15:12:08.200Z,69.83
2019-05-15T15:14:39.594Z,69.82
2019-05-15T15:17:10.921Z,69.82
2019-05-15T15:19:41.980Z,70.19
2019-05-15T15:22:13.235Z,70.40
2019-05-15T15:24:44.389Z,70.69
2019-05-15T15:27:15.947Z,70.37
2019-05-15T15:29:48.299Z,70.28
2019-05-15T15:32:19.527Z,70.50
2019-05-15T15:34:50.635Z,70.68
2019-05-15T15:37:21.815Z,70.66
2019-05-15T15:39:53.252Z,70.73
2019-05-15T15:42:24.468Z,70.79
2019-05-15T15:44:57.958Z,70.73
2019-05-15T15:47:28.332Z,70.55
2019-05-15T15:49:59.326Z,70.70
2019-05-15T15:52:30.237Z,70.61
2019-05-15T15:55:01.294Z,70.69
2019-05-15T15:57:33.210Z,70.72
2019-05-15T16:00:10.192Z,70.88
2019-05-15T16:02:41.429Z,70.86
2019-05-15T16:05:12.948Z,70.66
2019-05-15T16:07:43.904Z,70.84
2019-05-15T16:10:15.051Z,70.75
2019-05-15T16:12:46.111Z,70.93
2019-05-15T16:15:17.992Z,70.93
2019-05-15T16:17:49.205Z,71.07
2019-05-15T16:20:21.162Z,71.29
2019-05-15T16:22:52.294Z,71.24
2019-05-15T16:25:23.378Z,71.58
2019-05-15T16:27:54.764Z,71.59
2019-05-15T16:30:28.052Z,71.62
2019-05-15T16:32:58.676Z,71.53
2019-05-15T16:35:29.951Z,71.49
2019-05-15T16:38:01.161Z,71.45
2019-05-15T16:40:32.663Z,71.42
2019-05-15T16:43:04.322Z,71.49
2019-05-15T16:45:38.423Z,71.67
2019-05-15T16:48:09.540Z,71.68
2019-05-15T16:50:40.786Z,71.94
2019-05-15T16:53:12.176Z,71.91
2019-05-15T16:55:43.437Z,72.04
2019-05-15T16:58:14.879Z,72.21
2019-05-15T17:00:46.319Z,72.38
2019-05-15T17:03:18.420Z,72.55
2019-05-15T17:05:49.917Z,72.76
2019-05-15T17:08:21.135Z,72.76
2019-05-15T17:10:52.198Z,72.75
2019-05-15T17:13:23.480Z,72.91
2019-05-15T17:15:54.559Z,72.92
2019-05-15T17:18:25.761Z,72.96
2019-05-15T17:20:58.853Z,72.86
2019-05-15T17:23:29.612Z,72.95
2019-05-15T17:26:01.297Z,72.97
2019-05-15T17:28:32.415Z,72.90
2019-05-15T17:31:03.539Z,72.66
2019-05-15T17:33:34.611Z,72.73
2019-05-15T17:36:05.657Z,72.77
2019-05-15T17:38:38.125Z,72.81
2019-05-15T17:41:10.772Z,72.83
2019-05-15T17:43:42.971Z,72.98
2019-05-15T17:46:14.097Z,73.31
2019-05-15T17:48:53.950Z,73.40
2019-05-15T17:51:18.317Z,73.29
2019-05-15T17:53:49.497Z,73.45
2019-05-15T17:56:20.627Z,73.49
2019-05-15T17:58:51.695Z,73.63
2019-05-15T18:01:22.739Z,73.61
2019-05-15T18:03:53.784Z,73.51
2019-05-15T18:06:25.044Z,73.60
2019-05-15T18:08:56.185Z,73.60
2019-05-15T18:11:27.839Z,73.59
2019-05-15T18:13:59.335Z,73.48
2019-05-15T18:16:30.426Z,73.63
2019-05-15T18:19:03.471Z,73.73
2019-05-15T18:21:35.121Z,73.86
2019-05-15T18:24:09.291Z,73.78
2019-05-15T18:26:39.970Z,73.87
2019-05-15T18:29:11.218Z,74.06
2019-05-15T18:31:42.592Z,73.98
2019-05-15T18:34:13.834Z,74.10
2019-05-15T18:36:44.838Z,74.11
2019-05-15T18:39:15.970Z,74.06
2019-05-15T18:41:48.531Z,74.08
2019-05-15T18:44:20.873Z,74.08
2019-05-15T18:46:51.911Z,74.12
2019-05-15T18:49:22.865Z,74.21
2019-05-15T18:51:53.962Z,74.27
2019-05-15T18:54:25.050Z,74.15
2019-05-15T18:56:58.384Z,74.12
2019-05-15T18:59:29.020Z,74.10
2019-05-15T19:02:00.283Z,74.36
2019-05-15T19:04:31.528Z,74.26
2019-05-15T19:07:02.657Z,74.44
2019-05-15T19:09:33.754Z,74.37
2019-05-15T19:12:05.414Z,74.43
2019-05-15T19:14:39.406Z,74.47
2019-05-15T19:17:09.530Z,74.49
2019-05-15T19:19:40.660Z,74.53
2019-05-15T19:22:12.060Z,74.67
2019-05-15T19:24:43.329Z,74.56
2019-05-15T19:27:14.817Z,74.56
2019-05-15T19:29:48.006Z,74.65
2019-05-15T19:32:18.894Z,74.70
2019-05-15T19:34:49.791Z,74.62
2019-05-15T19:37:21.024Z,74.82
2019-05-15T19:39:52.072Z,75.02
2019-05-15T19:42:23.229Z,75.32
2019-05-15T19:44:54.499Z,75.29
2019-05-15T19:47:25.586Z,75.25
2019-05-15T19:49:57.817Z,75.36
2019-05-15T19:52:28.923Z,75.26
2019-05-15T19:55:00.364Z,75.54
2019-05-15T19:57:31.350Z,75.37
2019-05-15T20:00:03.020Z,75.25
2019-05-15T20:02:34.662Z,75.14
2019-05-15T20:05:09.235Z,75.37
2019-05-15T20:07:40.608Z,75.51
2019-05-15T20:10:12.558Z,75.47
2019-05-15T20:12:43.598Z,75.24
2019-05-15T20:15:15.747Z,75.09
2019-05-15T20:17:47.855Z,74.94
2019-05-15T20:20:20.342Z,74.80
2019-05-15T20:22:51.685Z,74.73
2019-05-15T20:25:23.270Z,74.70
2019-05-15T20:27:54.330Z,74.65
2019-05-15T20:30:28.428Z,74.62
2019-05-15T20:32:58.990Z,74.49
2019-05-15T20:35:30.077Z,74.54
2019-05-15T20:38:01.264Z,74.58
2019-05-15T20:40:32.404Z,74.68
2019-05-15T20:43:03.658Z,74.70
2019-05-15T20:45:35.878Z,74.65
2019-05-15T20:48:08.962Z,74.59
2019-05-15T20:50:40.361Z,74.67
2019-05-15T20:53:11.585Z,74.69
2019-05-15T20:55:43.030Z,74.80
2019-05-15T20:58:14.201Z,74.75
2019-05-15T21:00:46.030Z,74.79
2019-05-15T21:03:17.910Z,74.75
2019-05-15T21:05:49.319Z,74.67
2019-05-15T21:08:20.418Z,74.52
2019-05-15T21:10:51.795Z,74.53
2019-05-15T21:13:22.864Z,74.60
2019-05-15T21:15:54.025Z,74.67
2019-05-15T21:18:25.268Z,74.80
2019-05-15T21:20:56.359Z,74.87
2019-05-15T21:23:28.583Z,74.98
2019-05-15T21:25:59.783Z,75.16
2019-05-15T21:28:30.869Z,75.12
2019-05-15T21:31:02.045Z,75.22
2019-05-15T21:33:33.752Z,75.19
2019-05-15T21:36:04.880Z,75.22
2019-05-15T21:38:35.951Z,75.29
2019-05-15T21:41:08.002Z,75.36
2019-05-15T21:43:39.204Z,75.46
2019-05-15T21:46:10.511Z,75.38
2019-05-15T21:48:41.662Z,75.28
2019-05-15T21:51:13.503Z,75.21
2019-05-15T21:53:44.553Z,75.20
2019-05-15T21:56:16.007Z,75.26
2019-05-15T21:58:48.308Z,75.46
2019-05-15T22:01:19.860Z,75.51
2019-05-15T22:03:52.001Z,75.75
2019-05-15T22:06:23.068Z,75.69
2019-05-15T22:08:54.251Z,75.89
2019-05-15T22:11:28.903Z,75.87
2019-05-15T22:13:58.980Z,75.78
2019-05-15T22:16:31.681Z,75.90
2019-05-15T22:19:02.871Z,75.88
2019-05-15T22:21:34.855Z,75.97
2019-05-15T22:24:08.246Z,75.97
2019-05-15T22:26:39.174Z,76.03
2019-05-15T22:29:10.701Z,76.13
2019-05-15T22:31:42.861Z,76.10
2019-05-15T22:34:14.296Z,76.08
2019-05-15T22:36:45.357Z,76.11
2019-05-15T22:39:18.802Z,76.21
2019-05-15T22:41:49.434Z,76.31
2019-05-15T22:44:20.655Z,76.34
2019-05-15T22:46:52.232Z,76.48
2019-05-15T22:49:23.338Z,76.49
2019-05-15T22:51:54.631Z,76.67
2019-05-15T22:54:27.738Z,76.81
2019-05-15T22:56:58.793Z,76.76
2019-05-15T22:59:29.939Z,76.77
2019-05-15T23:02:01.416Z,76.99
2019-05-15T23:04:32.467Z,77.07
2019-05-15T23:07:03.719Z,77.25
2019-05-15T23:09:35.125Z,77.25
2019-05-15T23:12:11.044Z,77.16
2019-05-15T23:14:39.604Z,77.02
2019-05-15T23:17:10.700Z,77.08
2019-05-15T23:19:41.926Z,77.25
2019-05-15T23:22:13.003Z,77.01
2019-05-15T23:24:44.260Z,76.90
2019-05-15T23:27:15.340Z,76.99
2019-05-15T23:29:48.968Z,76.97
2019-05-15T23:32:19.382Z,76.88
2019-05-15T23:34:50.338Z,76.90
2019-05-15T23:37:21.440Z,76.87
2019-05-15T23:39:52.421Z,76.85
2019-05-15T23:42:23.664Z,76.73
2019-05-15T23:44:55.205Z,76.71
2019-05-15T23:47:28.492Z,76.50
2019-05-15T23:49:58.912Z,76.58
2019-05-15T23:52:29.814Z,76.57
2019-05-15T23:55:00.758Z,76.45
2019-05-15T23:57:31.998Z,76.39
